createdAt,value
2022-09-23T00:01:13.955Z,9.20
2022-09-23T00:03:42.646Z,9.10
2022-09-23T00:06:12.381Z,9.10
2022-09-23T00:08:40.197Z,9.10
2022-09-23T00:11:15.369Z,9.10
2022-09-23T00:13:43.942Z,9.10
2022-09-23T00:16:14.720Z,9.10
2022-09-23T00:18:42.402Z,9.00
2022-09-23T00:21:12.175Z,9.00
2022-09-23T00:23:40.560Z,9.00
2022-09-23T00:26:09.194Z,9.00
2022-09-23T00:28:36.003Z,9.00
2022-09-23T00:31:11.201Z,9.00
2022-09-23T00:33:38.538Z,8.90
2022-09-23T00:36:07.514Z,8.90
2022-09-23T00:38:34.561Z,8.90
2022-09-23T00:41:01.476Z,8.90
2022-09-23T00:43:58.713Z,8.90
2022-09-23T00:46:31.107Z,8.90
2022-09-23T00:49:07.035Z,8.90
2022-09-23T00:51:38.585Z,8.90
2022-09-23T00:54:06.600Z,8.80
2022-09-23T00:56:34.647Z,8.80
2022-09-23T00:59:02.463Z,8.80
2022-09-23T01:01:29.836Z,8.80
2022-09-23T01:03:57.593Z,8.80
2022-09-23T01:06:24.482Z,8.80
2022-09-23T01:08:52.023Z,8.80
2022-09-23T01:11:18.876Z,8.70
2022-09-23T01:17:28.807Z,8.70
2022-09-23T01:19:57.070Z,8.70
2022-09-23T01:22:43.321Z,8.60
2022-09-23T01:25:35.634Z,8.60
2022-09-23T01:28:35.026Z,8.60
2022-09-23T01:31:37.114Z,8.50
2022-09-23T01:34:25.087Z,8.50
2022-09-23T01:36:57.999Z,8.50
2022-09-23T01:40:04.139Z,8.40
2022-09-23T01:42:46.592Z,8.40
2022-09-23T01:45:25.286Z,8.40
2022-09-23T01:47:57.298Z,8.30
2022-09-23T01:50:49.235Z,8.30
2022-09-23T01:53:37.805Z,8.30
2022-09-23T01:56:17.004Z,8.20
2022-09-23T01:59:15.432Z,8.20
2022-09-23T02:01:50.860Z,8.20
2022-09-23T02:05:04.129Z,8.10
2022-09-23T02:07:38.971Z,8.10
2022-09-23T02:10:24.367Z,8.10
2022-09-23T02:12:57.577Z,8.00
2022-09-23T02:15:31.647Z,8.00
2022-09-23T02:18:08.492Z,8.00
2022-09-23T02:20:39.712Z,8.00
2022-09-23T02:23:13.009Z,8.00
2022-09-23T02:25:51.688Z,8.00
2022-09-23T02:28:30.933Z,8.00
2022-09-23T02:31:41.929Z,8.00
2022-09-23T02:34:27.047Z,8.00
2022-09-23T02:37:14.120Z,7.90
2022-09-23T02:39:55.542Z,7.90
2022-09-23T02:42:27.630Z,7.90
2022-09-23T02:44:54.821Z,7.90
2022-09-23T02:47:24.495Z,7.90
2022-09-23T02:49:51.939Z,7.80
2022-09-23T02:52:18.780Z,7.80
2022-09-23T02:54:45.496Z,7.80
2022-09-23T02:57:14.471Z,7.70
2022-09-23T02:59:41.535Z,7.70
2022-09-23T03:02:27.068Z,7.60
2022-09-23T03:05:12.746Z,7.60
2022-09-23T03:07:45.237Z,7.60
2022-09-23T03:10:53.840Z,7.50
2022-09-23T03:13:48.752Z,7.40
2022-09-23T03:16:44.252Z,7.30
2022-09-23T03:19:34.820Z,7.30
2022-09-23T03:22:25.043Z,7.20
2022-09-23T03:24:54.243Z,7.20
2022-09-23T03:27:25.610Z,7.20
2022-09-23T03:29:54.777Z,7.20
2022-09-23T03:32:28.032Z,7.20
2022-09-23T03:34:57.807Z,7.20
2022-09-23T03:37:35.895Z,7.20
2022-09-23T03:40:21.092Z,7.30
2022-09-23T03:42:50.526Z,7.30
2022-09-23T03:45:21.710Z,7.30
2022-09-23T03:47:48.444Z,7.30
2022-09-23T03:50:17.246Z,7.20
2022-09-23T03:52:44.537Z,7.20
2022-09-23T03:55:11.476Z,7.20
2022-09-23T03:57:38.562Z,7.10
2022-09-23T04:00:07.412Z,7.10
2022-09-23T04:02:40.223Z,7.20
2022-09-23T04:05:09.081Z,7.10
2022-09-23T04:07:35.833Z,7.10
2022-09-23T04:10:02.761Z,7.00
2022-09-23T04:12:29.464Z,7.00
2022-09-23T04:14:56.175Z,6.90
2022-09-23T04:17:22.898Z,6.90
2022-09-23T04:19:49.594Z,6.90
2022-09-23T04:22:16.283Z,6.90
2022-09-23T04:24:43.461Z,6.90
2022-09-23T04:27:10.206Z,6.80
2022-09-23T04:29:36.932Z,6.80
2022-09-23T04:32:03.778Z,6.80
2022-09-23T04:34:30.523Z,6.80
2022-09-23T04:36:57.216Z,6.80
2022-09-23T04:39:23.915Z,6.70
2022-09-23T04:41:50.667Z,6.70
2022-09-23T04:44:17.370Z,6.70
2022-09-23T04:46:47.873Z,6.70
2022-09-23T04:49:15.998Z,6.70
2022-09-23T04:51:43.591Z,6.70
2022-09-23T04:54:13.696Z,6.70
2022-09-23T04:56:40.833Z,6.70
2022-09-23T04:59:07.936Z,6.70
2022-09-23T05:01:36.300Z,6.80
2022-09-23T05:04:06.137Z,6.80
2022-09-23T05:06:34.915Z,6.80
2022-09-23T05:09:04.387Z,6.80
2022-09-23T05:11:31.587Z,6.80
2022-09-23T05:13:58.848Z,6.80
2022-09-23T05:16:27.084Z,6.80
2022-09-23T05:18:54.499Z,6.80
2022-09-23T05:21:28.329Z,6.80
2022-09-23T05:23:58.876Z,6.80
2022-09-23T05:26:28.595Z,6.80
2022-09-23T05:28:56.343Z,6.80
2022-09-23T05:31:25.966Z,6.70
2022-09-23T05:33:56.825Z,6.70
2022-09-23T05:36:24.790Z,6.70
2022-09-23T05:38:52.548Z,6.70
2022-09-23T05:41:22.814Z,6.70
2022-09-23T05:43:53.648Z,6.70
2022-09-23T05:46:28.952Z,6.80
2022-09-23T05:49:01.747Z,6.80
2022-09-23T05:51:31.088Z,6.80
2022-09-23T05:53:59.568Z,6.80
2022-09-23T05:56:28.436Z,6.80
2022-09-23T05:58:56.924Z,6.80
2022-09-23T06:01:26.053Z,6.80
2022-09-23T06:03:54.297Z,6.90
2022-09-23T06:06:28.389Z,6.90
2022-09-23T06:08:55.160Z,6.90
2022-09-23T06:11:22.112Z,6.90
2022-09-23T06:13:49.291Z,7.00
2022-09-23T06:16:16.458Z,7.00
2022-09-23T06:18:45.539Z,7.00
2022-09-23T06:21:14.700Z,7.10
2022-09-23T06:23:42.214Z,7.10
2022-09-23T06:26:12.075Z,7.20
2022-09-23T06:28:40.477Z,7.20
2022-09-23T06:31:13.977Z,7.20
2022-09-23T06:33:42.770Z,7.20
2022-09-23T06:36:10.375Z,7.30
2022-09-23T06:38:44.053Z,7.30
2022-09-23T06:41:11.914Z,7.40
2022-09-23T06:43:38.904Z,7.40
2022-09-23T06:46:07.548Z,7.50
2022-09-23T06:48:41.716Z,7.50
2022-09-23T06:51:18.952Z,7.60
2022-09-23T06:53:47.118Z,7.60
2022-09-23T06:56:14.800Z,7.70
2022-09-23T06:58:41.698Z,7.80
2022-09-23T07:01:11.005Z,7.90
2022-09-23T07:03:38.782Z,8.00
2022-09-23T07:06:07.185Z,8.10
2022-09-23T07:08:34.967Z,8.10
2022-09-23T07:11:04.648Z,8.20
2022-09-23T07:13:33.347Z,8.30
2022-09-23T07:16:02.038Z,8.30
2022-09-23T07:18:36.614Z,8.40
2022-09-23T07:21:16.117Z,8.40
2022-09-23T07:23:47.693Z,8.50
2022-09-23T07:26:15.712Z,8.60
2022-09-23T07:28:42.745Z,8.70
2022-09-23T07:31:13.801Z,8.70
2022-09-23T07:33:44.091Z,8.80
2022-09-23T07:36:14.099Z,8.80
2022-09-23T07:38:45.286Z,8.90
2022-09-23T07:41:15.438Z,8.90
2022-09-23T07:43:42.275Z,9.00
2022-09-23T07:46:14.114Z,9.10
2022-09-23T07:48:40.922Z,9.20
2022-09-23T07:51:13.301Z,9.20
2022-09-23T07:53:40.091Z,9.30
2022-09-23T07:56:06.892Z,9.30
2022-09-23T07:58:39.439Z,9.40
2022-09-23T08:01:09.666Z,9.40
2022-09-23T08:03:37.469Z,9.40
2022-09-23T08:06:06.377Z,9.50
2022-09-23T08:08:33.111Z,9.60
2022-09-23T08:11:05.599Z,9.60
2022-09-23T08:13:33.301Z,9.60
2022-09-23T08:16:00.610Z,9.70
2022-09-23T08:18:27.645Z,9.70
2022-09-23T08:20:54.384Z,9.80
2022-09-23T08:23:21.401Z,9.80
2022-09-23T08:25:48.399Z,9.80
2022-09-23T08:28:18.371Z,9.90
2022-09-23T08:30:48.707Z,9.90
2022-09-23T08:33:20.989Z,9.90
2022-09-23T08:35:50.350Z,9.90
2022-09-23T08:38:17.094Z,10.00
2022-09-23T08:40:48.430Z,10.00
2022-09-23T08:43:27.328Z,10.00
2022-09-23T08:45:56.712Z,10.00
2022-09-23T08:48:30.518Z,10.10
2022-09-23T08:51:22.047Z,10.10
2022-09-23T08:53:48.854Z,10.20
2022-09-23T08:56:19.198Z,10.20
2022-09-23T08:58:56.354Z,10.30
2022-09-23T09:01:59.908Z,10.30
2022-09-23T09:04:35.586Z,10.40
2022-09-23T09:07:34.692Z,10.50
2022-09-23T09:10:00.403Z,10.50
2022-09-23T09:12:41.717Z,10.60
2022-09-23T09:15:14.592Z,10.70
2022-09-23T09:17:53.772Z,10.80
2022-09-23T09:20:27.816Z,10.90
2022-09-23T09:23:02.228Z,11.00
2022-09-23T09:25:48.394Z,11.10
2022-09-23T09:28:24.550Z,11.10
2022-09-23T09:30:56.393Z,11.20
2022-09-23T09:33:49.039Z,11.30
2022-09-23T09:36:37.905Z,11.30
2022-09-23T09:39:05.489Z,11.40
2022-09-23T09:41:32.585Z,11.50
2022-09-23T09:44:09.843Z,11.60
2022-09-23T09:46:48.369Z,11.70
2022-09-23T09:49:41.022Z,11.70
2022-09-23T09:52:13.731Z,11.80
2022-09-23T09:54:40.425Z,11.80
2022-09-23T09:57:25.213Z,11.90
2022-09-23T09:59:51.970Z,12.00
2022-09-23T10:02:23.647Z,12.00
2022-09-23T10:04:57.535Z,12.10
2022-09-23T10:07:27.287Z,12.10
2022-09-23T10:09:58.308Z,12.20
2022-09-23T10:12:47.257Z,12.20
2022-09-23T10:15:44.477Z,12.20
2022-09-23T10:18:28.002Z,12.20
2022-09-23T10:21:09.706Z,12.30
2022-09-23T10:23:42.332Z,12.30
2022-09-23T10:26:12.003Z,12.30
2022-09-23T10:28:44.529Z,12.40
2022-09-23T10:31:15.564Z,12.40
2022-09-23T10:33:50.444Z,12.40
2022-09-23T10:36:18.567Z,12.40
2022-09-23T10:39:20.554Z,12.50
2022-09-23T10:42:50.622Z,12.50
2022-09-23T10:45:47.422Z,12.60
2022-09-23T10:48:25.462Z,12.60
2022-09-23T10:50:54.062Z,12.70
2022-09-23T10:53:35.777Z,12.70
2022-09-23T10:56:24.537Z,12.70
2022-09-23T10:59:14.138Z,12.70
2022-09-23T11:01:58.213Z,12.80
2022-09-23T11:04:39.813Z,12.80
2022-09-23T11:07:40.872Z,12.90
2022-09-23T11:10:45.011Z,13.00
2022-09-23T11:13:54.083Z,13.00
2022-09-23T11:16:58.929Z,13.10
2022-09-23T11:19:41.092Z,13.20
2022-09-23T11:22:24.938Z,13.20
2022-09-23T11:25:25.740Z,13.20
2022-09-23T11:28:17.984Z,13.30
2022-09-23T11:31:00.739Z,13.40
2022-09-23T11:33:52.784Z,13.40
2022-09-23T11:36:37.683Z,13.50
2022-09-23T11:39:17.503Z,13.60
2022-09-23T11:41:46.149Z,13.60
2022-09-23T11:44:41.087Z,13.70
2022-09-23T11:47:24.495Z,13.80
2022-09-23T11:50:01.271Z,13.80
2022-09-23T11:52:36.584Z,13.90
2022-09-23T11:55:24.319Z,14.00
2022-09-23T11:57:55.148Z,14.10
2022-09-23T12:00:35.727Z,14.20
2022-09-23T12:03:29.342Z,14.30
2022-09-23T12:06:05.115Z,14.40
2022-09-23T12:08:39.091Z,14.40
2022-09-23T12:11:36.597Z,14.50
2022-09-23T12:14:09.604Z,14.60
2022-09-23T12:17:01.123Z,14.70
2022-09-23T12:19:51.664Z,14.80
2022-09-23T12:22:42.923Z,14.80
2022-09-23T12:25:26.567Z,14.90
2022-09-23T12:27:59.765Z,15.00
2022-09-23T12:30:30.577Z,15.00
2022-09-23T12:33:15.380Z,15.10
2022-09-23T12:35:45.176Z,15.10
2022-09-23T12:38:31.489Z,15.20
2022-09-23T12:41:00.016Z,15.30
2022-09-23T12:43:33.308Z,15.40
2022-09-23T12:46:25.593Z,15.50
2022-09-23T12:48:58.899Z,15.60
2022-09-23T12:51:30.842Z,15.70
2022-09-23T12:54:14.194Z,15.80
2022-09-23T12:56:40.947Z,15.90
2022-09-23T12:59:18.075Z,16.00
2022-09-23T13:01:45.005Z,16.00
2022-09-23T13:04:48.449Z,16.10
2022-09-23T13:07:23.442Z,16.20
2022-09-23T13:09:52.546Z,16.20
2022-09-23T13:12:31.069Z,16.20
2022-09-23T13:15:03.484Z,16.20
2022-09-23T13:17:38.244Z,16.30
2022-09-23T13:20:38.258Z,16.50
2022-09-23T13:23:15.908Z,16.60
2022-09-23T13:25:43.838Z,16.90
2022-09-23T13:28:49.033Z,17.10
2022-09-23T13:31:19.334Z,17.30
2022-09-23T13:33:50.333Z,17.50
2022-09-23T13:36:19.112Z,17.70
2022-09-23T13:38:47.003Z,17.90
2022-09-23T13:41:28.618Z,18.00
2022-09-23T13:43:58.581Z,18.20
2022-09-23T13:46:34.998Z,18.20
2022-09-23T13:49:02.849Z,18.30
2022-09-23T13:51:33.885Z,18.40
2022-09-23T13:54:02.629Z,18.50
2022-09-23T13:56:33.373Z,18.50
2022-09-23T13:59:18.947Z,18.30
2022-09-23T14:01:47.045Z,18.30
2022-09-23T14:04:25.318Z,18.20
2022-09-23T14:06:53.775Z,18.10
2022-09-23T14:09:27.422Z,18.10
2022-09-23T14:11:56.555Z,18.10
2022-09-23T14:14:24.131Z,18.00
2022-09-23T14:16:52.061Z,18.00
2022-09-23T14:19:23.859Z,18.10
2022-09-23T14:21:55.656Z,18.00
2022-09-23T14:24:34.001Z,18.00
2022-09-23T14:27:06.603Z,18.00
2022-09-23T14:29:41.965Z,18.00
2022-09-23T14:32:18.216Z,17.90
2022-09-23T14:34:48.397Z,17.90
2022-09-23T14:37:36.970Z,17.90
2022-09-23T14:40:09.389Z,18.00
2022-09-23T14:42:44.338Z,18.10
2022-09-23T14:45:20.612Z,18.10
2022-09-23T14:47:51.026Z,18.20
2022-09-23T14:51:02.361Z,18.20
2022-09-23T14:53:35.027Z,18.30
2022-09-23T14:56:22.109Z,18.50
2022-09-23T14:58:59.194Z,18.50
2022-09-23T15:01:32.985Z,18.40
2022-09-23T15:04:22.835Z,18.50
2022-09-23T15:06:55.828Z,18.40
2022-09-23T15:09:29.616Z,18.30
2022-09-23T15:11:59.945Z,18.20
2022-09-23T15:14:38.701Z,18.20
2022-09-23T15:17:32.473Z,18.00
2022-09-23T15:20:08.906Z,18.00
2022-09-23T15:22:50.303Z,17.80
2022-09-23T15:25:33.228Z,17.70
2022-09-23T15:28:17.279Z,17.60
2022-09-23T15:30:44.149Z,17.60
2022-09-23T15:33:13.622Z,17.50
2022-09-23T15:35:45.861Z,17.40
2022-09-23T15:38:12.903Z,17.30
2022-09-23T15:40:40.310Z,17.30
2022-09-23T15:43:27.643Z,17.20
2022-09-23T15:45:59.773Z,17.10
2022-09-23T15:48:31.682Z,17.10
2022-09-23T15:51:04.092Z,17.10
2022-09-23T15:53:31.440Z,17.00
2022-09-23T15:55:58.672Z,17.00
2022-09-23T15:58:26.300Z,16.90
2022-09-23T16:00:56.735Z,16.90
2022-09-23T16:03:30.653Z,16.90
2022-09-23T16:06:02.396Z,16.80
2022-09-23T16:08:32.195Z,16.80
2022-09-23T16:10:59.584Z,16.70
2022-09-23T16:13:26.317Z,16.80
2022-09-23T16:15:53.091Z,16.80
2022-09-23T16:18:20.176Z,16.70
2022-09-23T16:20:47.924Z,16.70
2022-09-23T16:23:35.410Z,16.70
2022-09-23T16:26:06.458Z,16.70
2022-09-23T16:28:33.628Z,16.70
2022-09-23T16:31:00.377Z,16.70
2022-09-23T16:33:27.671Z,16.60
2022-09-23T16:35:55.013Z,16.60
2022-09-23T16:38:21.712Z,16.50
2022-09-23T16:40:48.476Z,16.50
2022-09-23T16:43:15.369Z,16.50
2022-09-23T16:45:42.160Z,16.40
2022-09-23T16:48:11.328Z,16.30
2022-09-23T16:50:39.408Z,16.20
2022-09-23T16:53:06.239Z,16.20
2022-09-23T16:55:33.026Z,16.10
2022-09-23T16:57:59.756Z,16.10
2022-09-23T17:00:45.313Z,16.00
2022-09-23T17:03:31.590Z,15.80
2022-09-23T17:05:58.759Z,15.90
2022-09-23T17:08:25.585Z,15.80
2022-09-23T17:10:58.481Z,15.80
2022-09-23T17:13:26.986Z,15.70
2022-09-23T17:15:54.092Z,15.60
2022-09-23T17:18:21.559Z,15.60
2022-09-23T17:21:06.462Z,15.60
2022-09-23T17:23:35.507Z,15.50
2022-09-23T17:26:05.343Z,15.50
2022-09-23T17:28:32.452Z,15.50
2022-09-23T17:31:04.448Z,15.40
2022-09-23T17:33:32.715Z,15.30
2022-09-23T17:36:00.172Z,15.30
2022-09-23T17:38:29.433Z,15.30
2022-09-23T17:40:59.096Z,15.20
2022-09-23T17:43:26.052Z,15.20
2022-09-23T17:45:54.612Z,15.10
2022-09-23T17:48:22.684Z,15.10
2022-09-23T17:51:04.218Z,15.00
2022-09-23T17:53:33.055Z,15.00
2022-09-23T17:56:03.420Z,14.90
2022-09-23T17:58:33.644Z,14.90
2022-09-23T18:01:00.922Z,14.80
2022-09-23T18:03:30.019Z,14.80
2022-09-23T18:06:12.042Z,14.80
2022-09-23T18:08:39.610Z,14.80
2022-09-23T18:11:19.094Z,14.80
2022-09-23T18:13:51.183Z,14.70
2022-09-23T18:16:18.865Z,14.70
2022-09-23T18:19:00.157Z,14.70
2022-09-23T18:21:30.058Z,14.60
2022-09-23T18:24:28.272Z,14.60
2022-09-23T18:26:45.000Z,14.60
2022-09-23T18:29:11.692Z,14.50
2022-09-23T18:31:39.290Z,14.50
2022-09-23T18:34:10.382Z,14.50
2022-09-23T18:36:37.983Z,14.50
2022-09-23T18:39:05.368Z,14.40
2022-09-23T18:41:35.636Z,14.40
2022-09-23T18:44:04.211Z,14.40
2022-09-23T18:46:31.789Z,14.30
2022-09-23T18:49:17.964Z,14.30
2022-09-23T18:51:59.627Z,14.30
2022-09-23T18:54:30.449Z,14.30
2022-09-23T18:56:59.233Z,14.30
2022-09-23T18:59:29.799Z,14.20
2022-09-23T19:01:57.261Z,14.20
2022-09-23T19:04:29.739Z,14.20
2022-09-23T19:07:03.233Z,14.20
2022-09-23T19:09:29.949Z,14.20
2022-09-23T19:11:57.672Z,14.10
2022-09-23T19:14:24.505Z,14.10
2022-09-23T19:16:51.279Z,14.10
2022-09-23T19:19:18.157Z,14.10
2022-09-23T19:21:45.003Z,14.00
2022-09-23T19:24:15.603Z,14.00
2022-09-23T19:26:43.657Z,14.00
2022-09-23T19:29:15.635Z,13.90
2022-09-23T19:31:43.447Z,13.90
2022-09-23T19:34:19.302Z,13.90
2022-09-23T19:36:47.615Z,13.90
2022-09-23T19:39:19.834Z,13.90
2022-09-23T19:41:47.401Z,13.80
2022-09-23T19:44:15.257Z,13.80
2022-09-23T19:46:45.156Z,13.80
2022-09-23T19:49:12.294Z,13.70
2022-09-23T19:51:39.703Z,13.70
2022-09-23T19:54:07.706Z,13.70
2022-09-23T19:56:35.486Z,13.70
2022-09-23T19:59:04.464Z,13.60
2022-09-23T20:01:31.966Z,13.70
2022-09-23T20:03:59.531Z,13.60
2022-09-23T20:06:30.450Z,13.60
2022-09-23T20:09:00.861Z,13.60
2022-09-23T20:11:28.985Z,13.60
2022-09-23T20:14:02.183Z,13.60
2022-09-23T20:16:32.150Z,13.50
2022-09-23T20:19:00.263Z,13.50
2022-09-23T20:21:29.040Z,13.50
2022-09-23T20:23:56.768Z,13.50
2022-09-23T20:26:42.535Z,13.50
2022-09-23T20:29:10.635Z,13.40
2022-09-23T20:31:37.908Z,13.40
2022-09-23T20:34:07.002Z,13.40
2022-09-23T20:36:35.025Z,13.40
2022-09-23T20:39:05.661Z,13.40
2022-09-23T20:41:36.544Z,13.40
2022-09-23T20:44:05.733Z,13.30
2022-09-23T20:46:32.819Z,13.30
2022-09-23T20:48:59.758Z,13.30
2022-09-23T20:51:26.657Z,13.30
2022-09-23T20:53:53.403Z,13.20
2022-09-23T20:56:21.346Z,13.20
2022-09-23T20:58:50.315Z,13.20
2022-09-23T21:01:17.739Z,13.20
2022-09-23T21:03:49.397Z,13.20
2022-09-23T21:06:18.613Z,13.10
2022-09-23T21:08:45.931Z,13.10
2022-09-23T21:11:15.605Z,13.10
2022-09-23T21:13:47.108Z,13.10
2022-09-23T21:16:19.140Z,13.00
2022-09-23T21:18:49.608Z,13.00
2022-09-23T21:21:19.269Z,13.00
2022-09-23T21:23:47.598Z,13.00
2022-09-23T21:26:20.232Z,12.90
2022-09-23T21:28:50.020Z,12.90
2022-09-23T21:31:23.253Z,12.90
2022-09-23T21:33:56.508Z,12.90
2022-09-23T21:36:24.518Z,12.80
2022-09-23T21:38:52.181Z,12.80
2022-09-23T21:41:20.824Z,12.80
2022-09-23T21:43:49.457Z,12.80
2022-09-23T21:46:21.488Z,12.80
2022-09-23T21:48:53.209Z,12.80
2022-09-23T21:51:26.209Z,12.80
2022-09-23T21:53:55.417Z,12.80
2022-09-23T21:56:27.659Z,12.80
2022-09-23T21:58:55.624Z,12.80
2022-09-23T22:01:35.176Z,12.80
2022-09-23T22:04:14.759Z,12.80
2022-09-23T22:06:41.900Z,12.80
2022-09-23T22:09:14.546Z,12.80
2022-09-23T22:12:00.632Z,12.70
2022-09-23T22:14:27.593Z,12.70
2022-09-23T22:16:57.321Z,12.70
2022-09-23T22:19:26.920Z,12.90
2022-09-23T22:21:55.734Z,12.70
2022-09-23T22:24:22.596Z,12.70
2022-09-23T22:26:49.341Z,12.70
2022-09-23T22:29:35.087Z,12.70
2022-09-23T22:32:22.225Z,12.70
2022-09-23T22:34:50.986Z,12.70
2022-09-23T22:37:21.204Z,12.60
2022-09-23T22:39:47.919Z,12.60
2022-09-23T22:42:14.671Z,12.60
2022-09-23T22:44:41.492Z,12.60
2022-09-23T22:47:09.170Z,12.50
2022-09-23T22:49:36.068Z,12.60
2022-09-23T22:52:04.022Z,12.50
2022-09-23T22:54:34.004Z,12.60
2022-09-23T22:57:03.188Z,12.50
2022-09-23T22:59:30.370Z,12.50
2022-09-23T23:01:59.864Z,12.50
2022-09-23T23:04:27.507Z,12.40
2022-09-23T23:06:54.253Z,12.40
2022-09-23T23:09:21.071Z,12.40
2022-09-23T23:11:48.003Z,12.40
2022-09-23T23:14:17.517Z,12.30
2022-09-23T23:16:46.052Z,12.30
2022-09-23T23:19:16.796Z,12.30
2022-09-23T23:21:45.021Z,12.30
2022-09-23T23:24:17.859Z,12.30
2022-09-23T23:26:45.267Z,12.30
2022-09-23T23:29:14.138Z,12.20
2022-09-23T23:31:41.569Z,12.20
2022-09-23T23:34:12.548Z,12.20
2022-09-23T23:36:39.877Z,12.20
2022-09-23T23:39:06.735Z,12.20
2022-09-23T23:41:33.820Z,12.10
2022-09-23T23:44:01.250Z,12.10
2022-09-23T23:46:29.662Z,12.10
2022-09-23T23:48:57.543Z,12.00
2022-09-23T23:51:26.374Z,12.00
2022-09-23T23:53:53.943Z,12.00
2022-09-23T23:56:22.918Z,12.00
2022-09-23T23:58:57.423Z,12.00
